メインページ
METAR-TAF:

METAR-TAF

空港 :

岡山空港

岡山, 日本

緯度: 34-45N, 経度: 133-51E, 海抜: 241m

現時点の気象観測

当レポートは1時間5分前の11:00(UTC)に作成
の風 4kt
気温 17°C
湿度 59%
気圧 1018 hPa
視程10km以上
高度2500ftの雲はほとんどない
高度5000ftの千切れ雲あり
千切れ雲あり

METAR: RJOB 201100Z 10004KT 9999 FEW025 BKN050 BKN/// 17/09 Q1018

時間: 21:05 (12:05 UTC)

予報

当レポートは57分前の11:08(UTC)に作成
予報は20日の 12時(UTC)から 21日の 18時(UTC)まで有効
東/北東の風 6kt
視程10km以上
高度2500ftの雲はほとんどない
高度4500ftの雲は散在している

TAF: RJOB 201108Z 2012/2118 06006KT 9999 FEW025 SCT045

4,000以上の空港の気象観測と天気予報(METAR報とTAF報)

利用可能な観測所は地図上に黄色い丸と赤い丸で示す。

丸の上にカーソルを重ねると観測所名を参照できる。

次にクリックすると気象観測と天気予報を参照できる。

マップの切り替え:黒色「×」印の緑ボタンをクリックして拡大、「-」印の緑ボタンをクリックして縮小、緑色の三角印をクリックして隣りの地図に切り替え


METAR-TAF: